createdAt,value
2022-08-03T00:00:14.423Z,92.61
2022-08-03T00:04:16.516Z,93.21
2022-08-03T00:08:19.571Z,94.10
2022-08-03T00:12:21.289Z,95.10
2022-08-03T00:16:25.097Z,95.40
2022-08-03T00:20:26.726Z,96.19
2022-08-03T00:24:28.367Z,95.94
2022-08-03T00:28:30.098Z,96.23
2022-08-03T00:32:31.658Z,96.83
2022-08-03T00:36:34.900Z,97.53
2022-08-03T00:40:36.514Z,97.92
2022-08-03T00:44:43.152Z,98.22
2022-08-03T00:48:44.756Z,98.32
2022-08-03T00:52:47.358Z,97.47
2022-08-03T00:56:59.546Z,96.98
2022-08-03T01:01:02.003Z,96.62
2022-08-03T01:05:04.124Z,96.62
2022-08-03T01:09:38.207Z,97.22
2022-08-03T01:14:03.849Z,97.27
2022-08-03T01:18:24.488Z,97.47
2022-08-03T01:22:37.800Z,97.57
2022-08-03T01:27:01.021Z,98.02
2022-08-03T01:31:11.089Z,98.41
2022-08-03T01:35:16.481Z,98.51
2022-08-03T01:39:19.217Z,98.61
2022-08-03T01:43:55.357Z,99.01
2022-08-03T01:47:48.396Z,98.96
2022-08-03T01:51:57.733Z,99.16
2022-08-03T01:56:06.869Z,99.46
2022-08-03T02:00:12.118Z,99.55
2022-08-03T02:04:17.411Z,99.55
2022-08-03T02:08:19.686Z,99.36
2022-08-03T02:12:23.824Z,99.36
2022-08-03T02:16:27.485Z,99.40
2022-08-03T02:20:32.971Z,99.30
2022-08-03T02:24:34.586Z,99.30
2022-08-03T02:28:40.714Z,99.60
2022-08-03T02:32:47.004Z,99.75
2022-08-03T02:36:53.552Z,99.99
2022-08-03T02:40:58.127Z,99.99
2022-08-03T02:45:02.811Z,99.99
2022-08-03T02:49:49.574Z,99.99
2022-08-03T02:53:29.423Z,99.99
2022-08-03T02:57:33.547Z,99.99
2022-08-03T03:01:35.741Z,99.99
2022-08-03T03:05:55.377Z,99.99
2022-08-03T03:10:00.288Z,99.99
2022-08-03T03:14:02.977Z,99.99
2022-08-03T03:18:06.980Z,99.99
2022-08-03T03:22:09.661Z,99.99
2022-08-03T03:26:14.434Z,99.99
2022-08-03T03:30:16.096Z,99.99
2022-08-03T03:34:18.823Z,99.99
2022-08-03T03:38:20.713Z,99.99
2022-08-03T03:42:22.740Z,99.99
2022-08-03T03:46:24.338Z,99.99
2022-08-03T03:50:27.363Z,99.99
2022-08-03T03:54:42.538Z,99.99
2022-08-03T03:58:44.358Z,99.99
2022-08-03T04:02:46.723Z,99.99
2022-08-03T04:07:06.909Z,99.99
2022-08-03T04:11:29.346Z,99.99
2022-08-03T04:15:34.080Z,99.99
2022-08-03T04:19:40.281Z,99.99
2022-08-03T04:23:46.069Z,99.99
2022-08-03T04:28:07.743Z,99.99
2022-08-03T04:32:11.618Z,99.99
2022-08-03T04:36:17.422Z,99.99
2022-08-03T04:40:22.868Z,99.99
2022-08-03T04:44:28.435Z,99.99
2022-08-03T04:48:30.548Z,99.99
2022-08-03T04:52:33.028Z,99.99
2022-08-03T04:56:34.657Z,99.99
2022-08-03T05:00:36.371Z,99.99
2022-08-03T05:04:40.761Z,99.99
2022-08-03T05:08:47.051Z,99.99
2022-08-03T05:12:52.208Z,99.99
2022-08-03T05:16:53.829Z,99.99
2022-08-03T05:20:55.407Z,99.99
2022-08-03T05:24:57.603Z,99.99
2022-08-03T05:28:59.148Z,99.99
2022-08-03T05:33:00.984Z,99.99
2022-08-03T05:37:02.529Z,99.99
2022-08-03T05:41:23.728Z,99.99
2022-08-03T05:45:28.426Z,99.99
2022-08-03T05:49:30.424Z,99.99
2022-08-03T05:53:34.886Z,99.99
2022-08-03T05:57:36.990Z,99.99
2022-08-03T06:01:38.623Z,99.99
2022-08-03T06:05:43.208Z,99.99
2022-08-03T06:10:35.912Z,99.99
2022-08-03T06:14:23.790Z,99.99
2022-08-03T06:18:25.600Z,99.99
2022-08-03T06:22:27.250Z,99.99
2022-08-03T06:26:28.898Z,99.99
2022-08-03T06:30:30.788Z,99.99
2022-08-03T06:34:35.817Z,99.99
2022-08-03T06:38:37.498Z,99.99
2022-08-03T06:42:39.075Z,99.99
2022-08-03T06:46:40.778Z,99.91
2022-08-03T06:50:44.231Z,99.99
2022-08-03T06:54:45.816Z,98.71
2022-08-03T06:58:47.651Z,95.68
2022-08-03T07:02:49.449Z,96.58
2022-08-03T07:06:55.169Z,95.43
2022-08-03T07:10:56.724Z,94.44
2022-08-03T07:15:02.153Z,93.84
2022-08-03T07:19:04.912Z,93.90
2022-08-03T07:23:06.454Z,94.25
2022-08-03T07:27:09.302Z,93.26
2022-08-03T07:31:10.891Z,93.85
2022-08-03T07:35:25.007Z,94.20
2022-08-03T07:39:27.097Z,93.90
2022-08-03T07:43:28.692Z,91.38
2022-08-03T07:47:35.405Z,91.47
2022-08-03T07:51:37.917Z,90.64
2022-08-03T07:55:39.538Z,89.75
2022-08-03T07:59:56.366Z,90.20
2022-08-03T08:04:01.733Z,89.90
2022-08-03T08:08:04.619Z,88.37
2022-08-03T08:12:15.210Z,89.36
2022-08-03T08:16:17.546Z,88.82
2022-08-03T08:20:31.967Z,89.07
2022-08-03T08:24:33.976Z,89.28
2022-08-03T08:28:36.113Z,88.78
2022-08-03T08:32:37.973Z,88.24
2022-08-03T08:36:39.559Z,88.04
2022-08-03T08:40:41.217Z,87.41
2022-08-03T08:44:42.823Z,87.30
2022-08-03T08:48:46.761Z,86.77
2022-08-03T08:52:50.181Z,86.57
2022-08-03T08:56:53.439Z,86.24
2022-08-03T09:00:55.086Z,86.33
2022-08-03T09:04:57.969Z,86.29
2022-08-03T09:08:59.666Z,85.80
2022-08-03T09:13:01.442Z,85.16
2022-08-03T09:17:04.563Z,85.26
2022-08-03T09:21:34.228Z,83.98
2022-08-03T09:25:43.439Z,84.43
2022-08-03T09:29:49.442Z,83.90
2022-08-03T09:33:51.028Z,82.51
2022-08-03T09:38:14.070Z,83.26
2022-08-03T09:42:18.265Z,82.28
2022-08-03T09:46:20.068Z,82.24
2022-08-03T09:50:21.670Z,82.43
2022-08-03T09:54:31.655Z,82.10
2022-08-03T09:58:33.235Z,81.02
2022-08-03T10:02:34.955Z,79.30
2022-08-03T10:06:36.536Z,80.25
2022-08-03T10:10:50.232Z,78.28
2022-08-03T10:14:52.804Z,79.13
2022-08-03T10:18:56.556Z,79.03
2022-08-03T10:22:59.175Z,78.00
2022-08-03T10:27:07.105Z,76.98
2022-08-03T10:31:10.694Z,76.69
2022-08-03T10:35:19.575Z,77.38
2022-08-03T10:39:25.348Z,77.08
2022-08-03T10:44:14.270Z,76.75
2022-08-03T10:48:17.542Z,76.72
2022-08-03T10:52:31.408Z,76.22
2022-08-03T10:56:54.603Z,76.18
2022-08-03T11:00:56.409Z,76.54
2022-08-03T11:05:30.644Z,76.64
2022-08-03T11:09:42.328Z,74.35
2022-08-03T11:14:18.920Z,75.03
2022-08-03T11:18:20.883Z,75.19
2022-08-03T11:22:49.023Z,75.39
2022-08-03T11:27:26.540Z,74.51
2022-08-03T11:36:02.461Z,74.66
2022-08-03T11:40:04.552Z,74.08
2022-08-03T11:44:06.184Z,73.46
2022-08-03T11:48:16.954Z,73.46
2022-08-03T11:52:19.488Z,73.22
2022-08-03T11:56:43.120Z,72.93
2022-08-03T12:00:44.745Z,73.03
2022-08-03T12:04:50.368Z,72.80
2022-08-03T12:08:51.953Z,72.99
2022-08-03T12:12:58.194Z,72.80
2022-08-03T12:17:00.166Z,72.66
2022-08-03T12:21:24.276Z,72.37
2022-08-03T12:25:39.204Z,71.26
2022-08-03T12:29:41.594Z,71.84
2022-08-03T12:34:07.946Z,69.95
2022-08-03T12:38:12.212Z,68.98
2022-08-03T12:42:13.793Z,70.70
2022-08-03T12:46:19.740Z,70.70
2022-08-03T12:50:33.235Z,69.40
2022-08-03T12:54:35.972Z,69.10
2022-08-03T12:58:37.643Z,68.39
2022-08-03T13:02:39.507Z,69.17
2022-08-03T13:07:02.776Z,68.00
2022-08-03T13:11:50.635Z,67.28
2022-08-03T13:15:47.788Z,66.31
2022-08-03T13:19:50.625Z,66.08
2022-08-03T13:23:52.360Z,65.85
2022-08-03T13:28:03.288Z,66.05
2022-08-03T13:32:07.555Z,66.21
2022-08-03T13:36:09.192Z,65.79
2022-08-03T13:40:11.636Z,66.27
2022-08-03T13:44:28.915Z,65.46
2022-08-03T13:48:37.081Z,65.56
2022-08-03T13:52:39.301Z,65.82
2022-08-03T13:56:40.889Z,65.63
2022-08-03T14:00:42.509Z,65.43
2022-08-03T14:04:44.155Z,65.79
2022-08-03T14:08:45.798Z,64.81
2022-08-03T14:12:47.401Z,64.88
2022-08-03T14:16:49.450Z,64.40
2022-08-03T14:20:54.391Z,64.46
2022-08-03T14:24:58.119Z,64.26
2022-08-03T14:29:00.228Z,63.68
2022-08-03T14:33:02.023Z,62.71
2022-08-03T14:37:03.650Z,63.01
2022-08-03T14:41:05.308Z,62.59
2022-08-03T14:45:09.566Z,61.91
2022-08-03T14:50:31.411Z,62.49
2022-08-03T14:53:43.016Z,62.10
2022-08-03T14:57:44.677Z,61.98
2022-08-03T15:02:02.408Z,61.68
2022-08-03T15:06:07.868Z,61.78
2022-08-03T15:10:09.471Z,62.26
2022-08-03T15:14:13.564Z,62.04
2022-08-03T15:18:16.528Z,61.94
2022-08-03T15:22:20.613Z,62.62
2022-08-03T15:26:30.757Z,62.91
2022-08-03T15:30:37.600Z,60.94
2022-08-03T15:34:39.184Z,61.04
2022-08-03T15:38:40.772Z,61.82
2022-08-03T15:42:42.361Z,60.91
2022-08-03T15:46:43.894Z,60.82
2022-08-03T15:50:45.557Z,61.30
2022-08-03T15:54:47.142Z,60.52
2022-08-03T15:59:04.205Z,60.21
2022-08-03T16:03:10.606Z,61.01
2022-08-03T16:07:14.313Z,60.72
2022-08-03T16:11:16.187Z,60.33
2022-08-03T16:15:17.878Z,60.43
2022-08-03T16:19:19.512Z,60.14
2022-08-03T16:23:21.079Z,60.62
2022-08-03T16:27:56.890Z,60.43
2022-08-03T16:31:51.330Z,60.14
2022-08-03T16:35:53.142Z,60.24
2022-08-03T16:39:55.412Z,60.43
2022-08-03T16:43:56.958Z,61.01
2022-08-03T16:48:05.649Z,61.30
2022-08-03T16:52:07.428Z,60.52
2022-08-03T16:56:10.904Z,60.62
2022-08-03T17:00:32.977Z,60.27
2022-08-03T17:04:35.746Z,60.27
2022-08-03T17:08:42.019Z,60.49
2022-08-03T17:12:56.874Z,61.07
2022-08-03T17:17:01.506Z,62.75
2022-08-03T17:21:05.768Z,62.59
2022-08-03T17:25:09.528Z,63.65
2022-08-03T17:29:26.659Z,63.39
2022-08-03T17:33:35.611Z,63.91
2022-08-03T17:37:58.539Z,64.23
2022-08-03T17:42:03.691Z,64.75
2022-08-03T17:46:07.128Z,64.29
2022-08-03T17:50:24.067Z,65.59
2022-08-03T17:54:33.289Z,65.23
2022-08-03T17:58:55.064Z,65.95
2022-08-03T18:03:15.121Z,66.47
2022-08-03T18:07:18.879Z,66.66
2022-08-03T18:11:24.047Z,67.57
2022-08-03T18:15:45.142Z,68.97
2022-08-03T18:20:03.584Z,69.85
2022-08-03T18:24:12.059Z,70.67
2022-08-03T18:28:15.865Z,70.57
2022-08-03T18:32:17.642Z,71.48
2022-08-03T18:36:21.616Z,72.27
2022-08-03T18:40:31.531Z,72.88
2022-08-03T18:44:52.621Z,73.27
2022-08-03T18:49:08.048Z,73.60
2022-08-03T18:53:22.811Z,74.38
2022-08-03T18:57:59.564Z,75.40
2022-08-03T19:02:06.484Z,75.31
2022-08-03T19:06:20.307Z,76.32
2022-08-03T19:10:25.504Z,76.51
2022-08-03T19:14:42.240Z,76.16
2022-08-03T19:18:48.575Z,76.75
2022-08-03T19:22:51.449Z,78.31
2022-08-03T19:26:55.887Z,79.33
2022-08-03T19:31:02.691Z,79.92
2022-08-03T19:35:13.345Z,81.13
2022-08-03T19:39:20.475Z,81.13
2022-08-03T19:43:52.562Z,81.17
2022-08-03T19:48:06.769Z,81.57
2022-08-03T19:52:11.747Z,82.06
2022-08-03T19:56:15.446Z,82.68
2022-08-03T20:00:19.912Z,83.66
2022-08-03T20:04:27.712Z,83.27
2022-08-03T20:08:29.842Z,84.00
2022-08-03T20:12:39.178Z,85.77
2022-08-03T20:16:42.702Z,86.45
2022-08-03T20:20:47.952Z,87.77
2022-08-03T20:24:53.501Z,88.99
2022-08-03T20:29:00.757Z,89.39
2022-08-03T20:33:11.426Z,90.07
2022-08-03T20:37:13.477Z,90.22
2022-08-03T20:41:18.896Z,90.61
2022-08-03T20:45:59.762Z,91.10
2022-08-03T20:49:46.269Z,92.18
2022-08-03T20:53:59.719Z,93.99
2022-08-03T20:58:02.212Z,94.78
2022-08-03T21:02:05.002Z,95.07
2022-08-03T21:06:09.946Z,94.82
2022-08-03T21:10:15.780Z,95.22
2022-08-03T21:14:52.267Z,95.72
2022-08-03T21:18:55.809Z,96.30
2022-08-03T21:22:59.141Z,97.04
2022-08-03T21:27:01.813Z,97.43
2022-08-03T21:31:04.108Z,97.04
2022-08-03T21:35:08.738Z,96.50
2022-08-03T21:39:11.359Z,96.50
2022-08-03T21:43:13.072Z,95.21
2022-08-03T21:47:15.361Z,96.05
2022-08-03T21:51:19.253Z,97.43
2022-08-03T21:55:25.316Z,97.03
2022-08-03T21:59:26.989Z,96.98
2022-08-03T22:03:29.728Z,95.90
2022-08-03T22:07:31.438Z,94.81
2022-08-03T22:11:35.011Z,94.32
2022-08-03T22:15:36.659Z,93.43
2022-08-03T22:19:38.218Z,92.84
2022-08-03T22:23:46.223Z,92.84
2022-08-03T22:27:48.036Z,92.84
2022-08-03T22:31:58.126Z,92.74
2022-08-03T22:36:04.718Z,92.74
2022-08-03T22:40:12.640Z,92.74
2022-08-03T22:44:14.804Z,92.84
2022-08-03T22:48:17.910Z,93.08
2022-08-03T22:52:20.220Z,93.08
2022-08-03T22:56:22.421Z,93.68
2022-08-03T23:00:24.522Z,92.69
2022-08-03T23:04:27.768Z,93.08
2022-08-03T23:08:32.515Z,93.13
2022-08-03T23:12:38.898Z,93.72
2022-08-03T23:16:42.733Z,93.97
2022-08-03T23:20:44.740Z,93.97
2022-08-03T23:24:47.280Z,93.72
2022-08-03T23:28:49.800Z,94.21
2022-08-03T23:32:54.617Z,95.89
2022-08-03T23:36:57.045Z,97.02
2022-08-03T23:41:00.020Z,97.47
2022-08-03T23:45:05.935Z,97.37
2022-08-03T23:49:08.154Z,97.17
2022-08-03T23:53:16.412Z,96.97
2022-08-03T23:57:45.194Z,96.82
